Time;durP1;ratioP1;P1;durP2;ratioP2;P2;SDS_P1;SDS_P2;PMS_P1;PMS_P2;Temp;Humidity;BMP_temperature;BMP_pressure;BME280_temperature;BME280_humidity;BME280_pressure;Samples;Min_cycle;Max_cycle;Signal;HPM_P1;HPM_P2
2024/01/26 00:02:13;;;;;;;473.37;436.83;;;7.60;99.90;;;;;;4944723;28;20048;-76
2024/01/26 00:04:38;;;;;;;411.47;380.23;;;7.60;99.90;;;;;;4948434;29;20058;-75
2024/01/26 00:07:05;;;;;;;505.40;466.27;;;7.70;99.90;;;;;;4939186;28;20099;-76
2024/01/26 00:09:31;;;;;;;489.00;449.80;;;7.80;99.90;;;;;;4967456;28;20054;-76
2024/01/26 00:11:57;;;;;;;462.17;427.10;;;7.80;99.90;;;;;;4965960;28;20416;-76
2024/01/26 00:14:22;;;;;;;504.03;464.43;;;7.80;99.90;;;;;;4948847;28;20074;-76
2024/01/26 00:16:48;;;;;;;495.13;456.37;;;7.80;99.90;;;;;;4940192;29;20039;-76
2024/01/26 00:19:14;;;;;;;572.43;526.03;;;7.80;99.90;;;;;;4965162;28;20448;-76
2024/01/26 00:21:39;;;;;;;508.27;465.87;;;7.90;99.90;;;;;;4959124;28;20043;-76
2024/01/26 00:24:05;;;;;;;544.90;500.07;;;7.90;99.90;;;;;;4961995;28;20043;-76
2024/01/26 00:26:31;;;;;;;653.95;597.25;;;7.90;99.90;;;;;;4954847;28;20043;-76
2024/01/26 00:28:57;;;;;;;650.13;588.73;;;8.00;99.90;;;;;;4954688;28;20043;-76
2024/01/26 00:31:22;;;;;;;527.67;483.37;;;8.00;99.90;;;;;;4953018;28;20055;-76
2024/01/26 00:33:48;;;;;;;445.87;412.43;;;8.00;99.90;;;;;;4923773;29;20039;-76
2024/01/26 00:36:14;;;;;;;463.60;428.07;;;8.00;99.90;;;;;;4928421;28;20062;-76
2024/01/26 00:38:40;;;;;;;685.57;623.77;;;8.00;99.90;;;;;;4956607;28;20054;-76
2024/01/26 00:41:06;;;;;;;524.47;483.33;;;8.00;99.90;;;;;;4930946;29;20054;-75
2024/01/26 00:43:32;;;;;;;443.80;410.03;;;8.10;99.90;;;;;;4950338;28;20291;-75
2024/01/26 00:45:58;;;;;;;447.30;412.50;;;8.10;99.90;;;;;;4958558;28;20098;-76
2024/01/26 00:48:24;;;;;;;379.23;351.27;;;8.10;99.90;;;;;;4938981;29;20048;-76
2024/01/26 00:50:50;;;;;;;512.83;471.37;;;8.10;99.90;;;;;;4959340;28;20035;-76
2024/01/26 00:53:19;;;;;;;468.17;431.10;;;8.10;99.90;;;;;;4954995;28;20118;-76
2024/01/26 00:55:45;;;;;;;468.03;432.33;;;8.10;99.90;;;;;;4938516;29;20070;-76
2024/01/26 00:58:10;;;;;;;606.50;556.37;;;8.10;99.90;;;;;;4955406;28;20293;-76
2024/01/26 01:00:36;;;;;;;406.37;377.67;;;8.10;99.90;;;;;;4961045;28;20450;-76
2024/01/26 01:03:02;;;;;;;573.07;526.60;;;8.10;99.90;;;;;;4954004;28;20050;-76
2024/01/26 01:05:28;;;;;;;410.93;382.07;;;8.10;99.90;;;;;;4952265;28;20079;-76
2024/01/26 01:07:53;;;;;;;442.50;410.03;;;8.10;99.90;;;;;;4952310;28;20139;-75
2024/01/26 01:10:19;;;;;;;428.40;396.63;;;8.10;99.90;;;;;;4946774;28;20501;-76
2024/01/26 01:12:45;;;;;;;368.70;343.27;;;8.10;99.90;;;;;;4958932;28;20051;-76
2024/01/26 01:15:13;;;;;;;449.13;416.70;;;8.10;99.90;;;;;;4933295;28;20058;-76
2024/01/26 01:17:41;;;;;;;423.37;391.93;;;8.10;99.90;;;;;;4940448;28;20490;-76
2024/01/26 01:20:11;;;;;;;478.43;443.37;;;8.10;99.90;;;;;;4940240;29;20283;-75
2024/01/26 01:22:37;;;;;;;480.83;444.80;;;8.10;99.90;;;;;;4950096;28;20290;-75
2024/01/26 01:25:13;;;;;;;463.33;428.63;;;8.10;99.90;;;;;;4948601;28;20299;-75
2024/01/26 01:27:39;;;;;;;480.73;443.23;;;8.00;99.90;;;;;;4949128;28;20278;-76
2024/01/26 01:30:06;;;;;;;414.90;386.60;;;8.00;99.90;;;;;;4933725;29;20306;-76
2024/01/26 01:32:32;;;;;;;489.67;453.00;;;8.00;99.90;;;;;;4946050;28;20287;-76
2024/01/26 01:34:58;;;;;;;499.98;462.63;;;8.00;99.90;;;;;;4930469;29;20035;-76
2024/01/26 01:37:23;;;;;;;490.60;453.40;;;8.00;99.90;;;;;;4959143;28;20078;-76
2024/01/26 01:39:49;;;;;;;422.70;392.00;;;8.00;99.90;;;;;;4936596;29;20106;-76
2024/01/26 01:42:16;;;;;;;506.27;468.67;;;8.00;99.90;;;;;;4936438;29;20131;-76
2024/01/26 01:44:45;;;;;;;468.83;434.85;;;8.00;99.90;;;;;;4951625;29;20066;-76
2024/01/26 01:47:13;;;;;;;422.50;391.07;;;8.00;99.90;;;;;;4937848;29;20039;-76
2024/01/26 01:49:40;;;;;;;507.30;467.20;;;8.00;99.90;;;;;;4954349;29;20353;-76
2024/01/26 01:52:09;;;;;;;473.10;437.63;;;7.90;99.90;;;;;;4931549;29;20299;-75
2024/01/26 01:54:37;;;;;;;535.37;492.97;;;7.90;99.90;;;;;;4947139;28;20355;-75
2024/01/26 01:57:04;;;;;;;508.83;468.85;;;7.80;99.90;;;;;;4938082;29;20357;-76
2024/01/26 01:59:33;;;;;;;535.33;493.27;;;7.80;99.90;;;;;;4944372;28;20078;-76
2024/01/26 02:02:00;;;;;;;559.57;515.33;;;7.70;99.90;;;;;;4934340;29;20282;-75
2024/01/26 02:04:26;;;;;;;433.53;401.40;;;7.70;99.90;;;;;;4938543;29;20290;-76
2024/01/26 02:07:02;;;;;;;469.83;434.70;;;7.70;99.90;;;;;;4944820;28;20314;-75
2024/01/26 02:09:29;;;;;;;490.33;452.63;;;7.60;99.90;;;;;;4935685;29;20282;-76
2024/01/26 02:11:55;;;;;;;614.65;564.40;;;7.60;99.90;;;;;;4942404;29;20650;-75
2024/01/26 02:14:21;;;;;;;458.65;425.20;;;7.60;99.90;;;;;;4951669;29;20043;-76
2024/01/26 02:16:55;;;;;;;451.07;418.63;;;7.60;99.90;;;;;;4928456;29;20035;-75
2024/01/26 02:19:22;;;;;;;527.40;486.70;;;7.60;99.90;;;;;;4934935;28;20075;-75
2024/01/26 02:21:47;;;;;;;438.70;406.30;;;7.70;99.90;;;;;;4952648;28;20291;-75
2024/01/26 02:24:14;;;;;;;402.30;372.73;;;7.70;99.90;;;;;;4938712;29;20078;-75
2024/01/26 02:26:40;;;;;;;433.13;400.30;;;7.70;99.90;;;;;;4955342;29;20077;-75
2024/01/26 02:29:06;;;;;;;551.85;507.08;;;7.80;99.90;;;;;;4947237;29;20314;-76
2024/01/26 02:31:31;;;;;;;454.43;422.13;;;7.90;99.90;;;;;;4939747;29;20051;-75
2024/01/26 02:33:57;;;;;;;501.57;462.43;;;7.90;99.90;;;;;;4962297;28;20501;-75
2024/01/26 02:36:23;;;;;;;510.03;471.30;;;8.00;99.90;;;;;;4962476;28;20035;-75
2024/01/26 02:38:49;;;;;;;543.87;498.57;;;8.00;99.90;;;;;;4956845;29;20067;-75
2024/01/26 02:41:15;;;;;;;463.17;430.67;;;8.20;99.90;;;;;;4955449;29;20122;-75
2024/01/26 02:43:41;;;;;;;454.23;420.67;;;8.30;99.90;;;;;;4959100;28;20036;-75
2024/01/26 02:46:10;;;;;;;478.77;441.23;;;8.30;99.90;;;;;;4951700;28;20476;-75
2024/01/26 02:48:36;;;;;;;493.08;455.30;;;8.40;99.90;;;;;;4951180;28;20038;-75
2024/01/26 02:51:01;;;;;;;470.20;434.63;;;8.40;99.90;;;;;;4945908;29;20051;-75
2024/01/26 02:53:27;;;;;;;442.93;409.17;;;8.40;99.90;;;;;;4971495;28;20046;-75
2024/01/26 02:55:53;;;;;;;508.80;468.07;;;8.50;99.90;;;;;;4953089;28;20068;-75
2024/01/26 02:58:18;;;;;;;529.60;484.73;;;8.50;99.90;;;;;;4949567;29;20035;-75
2024/01/26 03:00:44;;;;;;;417.20;384.87;;;8.50;99.90;;;;;;4951279;29;20122;-75
2024/01/26 03:03:10;;;;;;;504.50;464.03;;;8.50;99.90;;;;;;4966787;28;20529;-75
2024/01/26 03:05:36;;;;;;;600.07;546.97;;;8.50;99.90;;;;;;4965378;28;20051;-75
2024/01/26 03:08:01;;;;;;;471.77;435.13;;;8.50;99.90;;;;;;4967950;28;20055;-75
2024/01/26 03:10:27;;;;;;;540.37;498.20;;;8.50;99.90;;;;;;4970955;28;20086;-75
2024/01/26 03:12:53;;;;;;;535.57;493.53;;;8.60;99.90;;;;;;4966609;28;20043;-75
2024/01/26 03:15:19;;;;;;;493.73;454.40;;;8.50;99.90;;;;;;4965084;28;20054;-75
2024/01/26 03:17:44;;;;;;;597.17;547.97;;;8.60;99.90;;;;;;4952336;29;20050;-75
2024/01/26 03:20:10;;;;;;;549.23;504.60;;;8.60;99.90;;;;;;4952493;28;20102;-75
2024/01/26 03:22:36;;;;;;;570.70;522.10;;;8.60;99.90;;;;;;4963192;28;20039;-76
2024/01/26 03:25:03;;;;;;;603.83;552.10;;;8.60;99.90;;;;;;4958842;29;20350;-76
2024/01/26 03:27:29;;;;;;;531.50;489.63;;;8.60;99.90;;;;;;4951924;28;20172;-75
2024/01/26 03:29:55;;;;;;;487.40;448.50;;;8.60;99.90;;;;;;4966157;28;20310;-76
2024/01/26 03:32:21;;;;;;;526.97;484.83;;;8.70;99.90;;;;;;4946219;29;20298;-76
2024/01/26 03:34:47;;;;;;;541.90;497.17;;;8.70;99.90;;;;;;4962066;29;20279;-76
2024/01/26 03:37:12;;;;;;;536.27;491.70;;;8.70;99.90;;;;;;4937752;29;20039;-76
2024/01/26 03:39:38;;;;;;;587.13;536.53;;;8.70;99.90;;;;;;4950483;28;20035;-76
2024/01/26 03:42:05;;;;;;;546.07;499.83;;;8.80;99.90;;;;;;4966801;28;20079;-75
2024/01/26 03:44:31;;;;;;;534.23;490.50;;;8.80;99.90;;;;;;4965259;28;20493;-76
2024/01/26 03:46:56;;;;;;;540.17;496.37;;;8.80;99.90;;;;;;4974577;28;20294;-76
2024/01/26 03:49:22;;;;;;;538.77;494.97;;;8.80;99.90;;;;;;4949277;28;20046;-76
2024/01/26 03:51:48;;;;;;;651.97;595.33;;;8.90;99.90;;;;;;4961798;28;20046;-75
2024/01/26 03:54:13;;;;;;;614.27;562.67;;;8.90;99.90;;;;;;4946656;28;20039;-75
2024/01/26 03:56:39;;;;;;;550.83;506.10;;;8.90;99.90;;;;;;4930009;29;20118;-75
2024/01/26 03:59:05;;;;;;;570.00;523.23;;;9.00;99.90;;;;;;4944085;29;20039;-75
2024/01/26 04:01:31;;;;;;;538.87;496.37;;;9.00;99.90;;;;;;4960292;29;20290;-75
2024/01/26 04:03:56;;;;;;;568.03;520.90;;;9.00;99.90;;;;;;4936916;29;20047;-75
2024/01/26 04:06:23;;;;;;;696.50;631.70;;;9.10;99.90;;;;;;4956415;29;20066;-75
2024/01/26 04:08:48;;;;;;;637.30;585.03;;;9.10;99.90;;;;;;4960384;28;20105;-76
2024/01/26 04:11:14;;;;;;;576.63;529.17;;;9.10;99.90;;;;;;4945466;28;20394;-75
2024/01/26 04:13:40;;;;;;;580.37;531.83;;;9.20;99.90;;;;;;4953946;28;20031;-76
2024/01/26 04:16:08;;;;;;;586.30;536.83;;;9.20;99.90;;;;;;4952983;28;20031;-75
2024/01/26 04:18:34;;;;;;;579.30;532.33;;;9.20;99.90;;;;;;4965420;28;20110;-76
2024/01/26 04:21:00;;;;;;;650.77;594.60;;;9.20;99.90;;;;;;4956617;28;20282;-75
2024/01/26 04:23:25;;;;;;;685.67;623.83;;;9.30;99.90;;;;;;4939006;29;20131;-76
2024/01/26 04:25:51;;;;;;;688.80;619.97;;;9.30;99.90;;;;;;4937389;29;20047;-75
2024/01/26 04:28:17;;;;;;;606.10;556.53;;;9.30;99.90;;;;;;4942416;29;20050;-75
2024/01/26 04:30:43;;;;;;;578.87;530.07;;;9.40;99.90;;;;;;4956975;28;20051;-76
2024/01/26 04:33:09;;;;;;;719.80;652.37;;;9.40;99.90;;;;;;4945960;29;20039;-75
2024/01/26 04:35:35;;;;;;;626.83;574.57;;;9.40;99.90;;;;;;4953815;28;20804;-76
2024/01/26 04:38:00;;;;;;;688.20;625.90;;;9.50;99.90;;;;;;4943720;29;20040;-75
2024/01/26 04:40:26;;;;;;;589.13;541.57;;;9.50;99.90;;;;;;4959253;28;20345;-76
2024/01/26 04:42:52;;;;;;;589.63;542.37;;;9.50;99.90;;;;;;4947137;28;20517;-76
2024/01/26 04:45:18;;;;;;;732.37;658.00;;;9.50;99.90;;;;;;4938853;29;20048;-76
2024/01/26 04:47:43;;;;;;;687.30;624.93;;;9.50;99.90;;;;;;4937312;29;20047;-75
2024/01/26 04:50:10;;;;;;;566.67;519.80;;;9.50;99.90;;;;;;4954490;28;20047;-75
2024/01/26 04:52:35;;;;;;;757.03;684.57;;;9.50;99.90;;;;;;4939485;29;20477;-75
2024/01/26 04:55:01;;;;;;;723.53;659.00;;;9.50;99.90;;;;;;4947978;28;20279;-75
2024/01/26 04:57:27;;;;;;;736.90;662.33;;;9.50;99.90;;;;;;4933195;29;20043;-75
2024/01/26 04:59:52;;;;;;;611.33;557.77;;;9.50;99.90;;;;;;4953176;28;20038;-75
2024/01/26 05:02:18;;;;;;;607.93;557.13;;;9.40;99.90;;;;;;4954581;28;20131;-75
2024/01/26 05:04:44;;;;;;;551.07;507.40;;;9.40;99.90;;;;;;4948467;28;20039;-75
2024/01/26 05:07:10;;;;;;;566.83;520.13;;;9.40;99.90;;;;;;4951193;28;20130;-75
2024/01/26 05:09:36;;;;;;;649.53;593.17;;;9.40;99.90;;;;;;4956893;28;20083;-74
2024/01/26 05:12:02;;;;;;;577.37;532.13;;;9.30;99.90;;;;;;4945211;28;20321;-75
2024/01/26 05:14:28;;;;;;;534.90;493.27;;;9.30;99.90;;;;;;4954432;29;20507;-74
2024/01/26 05:16:53;;;;;;;569.27;524.57;;;9.30;99.90;;;;;;4954011;28;20066;-74
2024/01/26 05:19:19;;;;;;;580.43;534.97;;;9.20;99.90;;;;;;4955879;28;20287;-74
2024/01/26 05:21:45;;;;;;;571.83;528.33;;;9.20;99.90;;;;;;4954394;28;20052;-74
2024/01/26 05:24:10;;;;;;;583.70;537.47;;;9.20;99.90;;;;;;4958779;28;20047;-74
2024/01/26 05:26:39;;;;;;;478.27;442.33;;;9.20;99.90;;;;;;4941835;29;20494;-74
2024/01/26 05:29:06;;;;;;;633.63;583.10;;;9.20;99.90;;;;;;4944211;28;20042;-74
2024/01/26 05:31:33;;;;;;;622.70;568.27;;;9.20;99.90;;;;;;4949764;28;20311;-74
2024/01/26 05:34:00;;;;;;;576.43;531.97;;;9.30;99.90;;;;;;4945554;29;20769;-74
2024/01/26 05:36:25;;;;;;;735.87;665.37;;;9.30;99.90;;;;;;4969831;28;20282;-74
2024/01/26 05:38:51;;;;;;;627.73;575.70;;;9.30;99.90;;;;;;4946612;28;20701;-74
2024/01/26 05:41:17;;;;;;;556.43;511.83;;;9.30;99.90;;;;;;4939556;28;20043;-74
2024/01/26 05:43:42;;;;;;;607.63;557.47;;;9.30;99.90;;;;;;4956759;28;20153;-75
2024/01/26 05:46:08;;;;;;;575.13;528.07;;;9.30;99.90;;;;;;4944211;28;20402;-74
2024/01/26 05:48:34;;;;;;;657.50;598.33;;;9.30;99.90;;;;;;4921648;29;20046;-74
2024/01/26 05:50:59;;;;;;;614.80;561.23;;;9.40;99.90;;;;;;4942528;28;20405;-75
2024/01/26 05:53:25;;;;;;;630.77;579.27;;;9.40;99.90;;;;;;4955565;28;20087;-75
2024/01/26 05:55:51;;;;;;;627.63;577.03;;;9.40;99.90;;;;;;4941351;28;20078;-74
2024/01/26 05:58:16;;;;;;;520.20;479.20;;;9.50;99.90;;;;;;4950913;28;20572;-74
2024/01/26 06:00:42;;;;;;;608.07;557.03;;;9.50;99.90;;;;;;4924157;29;20074;-73
2024/01/26 06:03:08;;;;;;;632.97;578.80;;;9.40;99.90;;;;;;4931349;28;20046;-73
2024/01/26 06:05:34;;;;;;;737.80;666.37;;;9.50;99.90;;;;;;4928048;28;20039;-72
2024/01/26 06:08:00;;;;;;;543.60;500.57;;;9.50;99.90;;;;;;4952292;28;20055;-72
2024/01/26 06:10:25;;;;;;;547.33;502.30;;;9.50;99.90;;;;;;4926765;29;20383;-73
2024/01/26 06:12:51;;;;;;;736.03;665.83;;;9.50;99.90;;;;;;4938596;28;20405;-72
2024/01/26 06:15:17;;;;;;;580.77;534.03;;;9.40;99.90;;;;;;4947493;28;20081;-72
2024/01/26 06:17:43;;;;;;;614.57;563.57;;;9.40;99.90;;;;;;4929416;28;20509;-73
2024/01/26 06:20:11;;;;;;;593.43;544.93;;;9.40;99.90;;;;;;4953643;28;20044;-72
2024/01/26 06:22:37;;;;;;;625.33;575.47;;;9.40;99.90;;;;;;4928338;29;20058;-73
2024/01/26 06:25:03;;;;;;;619.23;567.53;;;9.40;99.90;;;;;;4957496;28;20286;-73
2024/01/26 06:27:28;;;;;;;596.33;545.80;;;9.30;99.90;;;;;;4928251;28;20283;-73
2024/01/26 06:29:54;;;;;;;557.47;513.50;;;9.30;99.90;;;;;;4946325;28;20306;-72
2024/01/26 06:32:20;;;;;;;541.73;497.87;;;9.30;99.90;;;;;;4937536;29;20039;-73
2024/01/26 06:34:46;;;;;;;683.93;622.67;;;9.30;99.90;;;;;;4938907;29;20082;-73
2024/01/26 06:37:12;;;;;;;608.00;556.83;;;9.30;99.90;;;;;;4922818;29;20089;-73
2024/01/26 06:39:38;;;;;;;577.03;527.87;;;9.30;99.90;;;;;;4943080;29;20314;-73
2024/01/26 06:42:04;;;;;;;523.70;483.33;;;9.20;99.90;;;;;;4948534;29;20750;-74
2024/01/26 06:44:32;;;;;;;550.83;507.27;;;9.20;99.90;;;;;;4943820;29;20092;-74
2024/01/26 06:46:58;;;;;;;593.70;544.43;;;9.20;99.90;;;;;;4922538;29;20295;-74
2024/01/26 06:49:24;;;;;;;636.63;584.63;;;9.20;99.90;;;;;;4951927;29;20297;-75
2024/01/26 06:51:49;;;;;;;714.93;646.80;;;9.20;99.90;;;;;;4930947;29;20046;-75
2024/01/26 06:54:15;;;;;;;599.60;550.27;;;9.20;99.90;;;;;;4948708;28;20396;-75
2024/01/26 06:56:41;;;;;;;676.03;617.77;;;9.10;99.90;;;;;;4950703;29;20032;-74
2024/01/26 06:59:06;;;;;;;616.13;563.77;;;9.10;99.90;;;;;;4951160;28;20040;-74
2024/01/26 07:01:32;;;;;;;613.47;562.43;;;9.10;99.90;;;;;;4939898;28;20398;-74
2024/01/26 07:03:59;;;;;;;540.40;498.17;;;9.10;99.90;;;;;;4949054;28;20412;-74
2024/01/26 07:06:24;;;;;;;507.40;467.10;;;9.10;99.90;;;;;;4936865;29;20058;-75
2024/01/26 07:08:50;;;;;;;599.30;549.47;;;9.10;99.90;;;;;;4938440;29;20275;-75
2024/01/26 07:11:18;;;;;;;525.27;483.63;;;9.10;99.90;;;;;;4931718;29;20434;-75
2024/01/26 07:13:44;;;;;;;633.17;577.13;;;9.00;99.90;;;;;;4934815;29;20313;-75
2024/01/26 07:16:09;;;;;;;498.27;460.07;;;9.00;99.90;;;;;;4941827;29;20315;-76
2024/01/26 07:18:35;;;;;;;553.87;510.00;;;9.00;99.90;;;;;;4945612;29;20490;-75
2024/01/26 07:21:08;;;;;;;569.50;522.93;;;9.00;99.90;;;;;;4948287;28;20038;-75
2024/01/26 07:23:34;;;;;;;506.27;468.63;;;9.00;99.90;;;;;;4937287;28;20050;-76
2024/01/26 07:26:01;;;;;;;619.40;568.57;;;8.90;99.90;;;;;;4941004;28;20314;-75
2024/01/26 07:28:27;;;;;;;604.77;553.80;;;8.90;99.90;;;;;;4950930;28;20286;-75
2024/01/26 07:30:52;;;;;;;450.63;417.17;;;9.00;99.90;;;;;;4935872;28;20305;-75
2024/01/26 07:33:18;;;;;;;568.27;519.90;;;9.00;99.90;;;;;;4937341;29;20286;-75
2024/01/26 07:35:44;;;;;;;570.57;524.57;;;8.90;99.90;;;;;;4952016;28;20043;-75
2024/01/26 07:38:09;;;;;;;592.47;542.00;;;9.00;99.90;;;;;;4943477;28;20035;-74
2024/01/26 07:40:36;;;;;;;624.70;571.47;;;9.00;99.90;;;;;;4957564;28;20516;-73
2024/01/26 07:43:01;;;;;;;630.60;574.80;;;9.00;99.90;;;;;;4925866;29;20047;-74
2024/01/26 07:45:27;;;;;;;513.27;474.43;;;9.10;99.90;;;;;;4947640;29;20297;-74
2024/01/26 07:47:53;;;;;;;583.73;536.77;;;9.20;99.90;;;;;;4949644;28;20039;-74
2024/01/26 07:50:19;;;;;;;719.00;651.33;;;9.10;99.90;;;;;;4955635;28;20130;-74
2024/01/26 07:52:44;;;;;;;525.03;485.63;;;9.20;99.90;;;;;;4932381;28;20040;-76
2024/01/26 07:55:10;;;;;;;534.67;492.13;;;9.10;99.90;;;;;;4957682;28;20045;-75
2024/01/26 07:57:37;;;;;;;765.53;689.23;;;9.20;99.90;;;;;;4930548;29;20043;-74
2024/01/26 08:00:05;;;;;;;722.57;652.63;;;9.20;99.90;;;;;;4936267;28;20513;-75
2024/01/26 08:02:31;;;;;;;849.97;757.57;;;9.40;99.90;;;;;;4944588;28;20300;-75
2024/01/26 08:04:56;;;;;;;652.27;592.70;;;9.60;99.90;;;;;;4940174;29;20840;-75
2024/01/26 08:07:22;;;;;;;1098.17;860.03;;;9.60;99.90;;;;;;4922498;29;20067;-74
2024/01/26 08:09:48;;;;;;;609.53;560.07;;;9.70;99.90;;;;;;4950035;28;20524;-75
2024/01/26 08:12:14;;;;;;;1270.53;806.33;;;9.70;99.90;;;;;;4925555;29;20036;-78
2024/01/26 08:14:39;;;;;;;756.90;679.70;;;9.80;99.90;;;;;;4949052;28;20047;-75
2024/01/26 08:17:05;;;;;;;645.50;590.03;;;9.80;99.90;;;;;;4930310;28;20039;-76
2024/01/26 08:19:32;;;;;;;1022.10;816.23;;;9.80;99.90;;;;;;4941338;29;20496;-77
2024/01/26 08:21:57;;;;;;;737.23;668.47;;;9.70;99.90;;;;;;4947327;28;20108;-76
2024/01/26 08:24:23;;;;;;;649.93;585.03;;;9.70;99.90;;;;;;4959748;28;20290;-75
2024/01/26 08:26:49;;;;;;;675.23;614.23;;;9.70;99.90;;;;;;4925417;29;20122;-76
2024/01/26 08:29:14;;;;;;;646.23;589.97;;;9.70;99.90;;;;;;4936156;29;20102;-76
2024/01/26 08:31:40;;;;;;;710.13;643.37;;;9.70;99.90;;;;;;4927355;28;20530;-75
2024/01/26 08:34:06;;;;;;;944.37;721.27;;;9.70;99.90;;;;;;4949360;28;20043;-76
2024/01/26 08:36:31;;;;;;;740.33;669.47;;;9.70;99.90;;;;;;4952726;28;20078;-74
2024/01/26 08:38:57;;;;;;;820.37;720.90;;;9.70;99.90;;;;;;4940032;28;20506;-75
2024/01/26 08:41:23;;;;;;;692.00;623.50;;;9.60;99.90;;;;;;4942962;28;20055;-75
2024/01/26 08:43:48;;;;;;;598.90;547.60;;;9.70;99.90;;;;;;4932296;29;20552;-75
2024/01/26 08:46:14;;;;;;;930.57;758.17;;;9.70;99.90;;;;;;4924467;29;20149;-74
2024/01/26 08:48:40;;;;;;;794.63;715.30;;;9.70;99.90;;;;;;4942317;28;20075;-74
2024/01/26 08:51:06;;;;;;;745.70;669.60;;;9.70;99.90;;;;;;4927745;29;20054;-73
2024/01/26 08:53:32;;;;;;;585.30;539.83;;;9.50;99.90;;;;;;4954540;28;20174;-74
2024/01/26 08:55:58;;;;;;;577.83;533.10;;;9.20;99.90;;;;;;4946134;29;20366;-74
2024/01/26 08:58:23;;;;;;;575.30;528.30;;;8.90;99.90;;;;;;4950086;29;20107;-74
2024/01/26 09:00:49;;;;;;;500.77;460.77;;;8.60;99.90;;;;;;4929155;29;20040;-76
2024/01/26 09:03:15;;;;;;;661.73;597.13;;;8.40;99.90;;;;;;4928193;28;20050;-74
2024/01/26 09:05:40;;;;;;;583.43;527.53;;;8.20;99.90;;;;;;4940723;29;20146;-75
2024/01/26 09:08:06;;;;;;;559.57;514.27;;;8.20;99.90;;;;;;4942419;28;20071;-75
2024/01/26 09:10:32;;;;;;;550.53;507.27;;;8.10;99.90;;;;;;4940092;28;20050;-75
2024/01/26 09:12:58;;;;;;;490.37;449.77;;;8.10;99.90;;;;;;4942114;28;20760;-76
2024/01/26 09:15:23;;;;;;;540.60;493.43;;;8.00;99.90;;;;;;4943032;28;20043;-75
2024/01/26 09:17:49;;;;;;;478.03;442.77;;;8.00;99.90;;;;;;4946537;29;20043;-76
2024/01/26 09:20:15;;;;;;;563.23;515.27;;;8.00;99.90;;;;;;4933649;29;20058;-75
2024/01/26 09:22:41;;;;;;;518.50;477.87;;;8.00;99.90;;;;;;4951219;28;20050;-75
2024/01/26 09:25:07;;;;;;;515.53;468.20;;;8.00;99.90;;;;;;4950024;28;20501;-75
2024/01/26 09:27:32;;;;;;;444.67;411.88;;;7.90;99.90;;;;;;4948470;28;20039;-75
2024/01/26 09:29:59;;;;;;;492.47;455.30;;;7.90;99.90;;;;;;4932333;29;20494;-75
2024/01/26 09:32:25;;;;;;;497.05;456.67;;;7.90;99.90;;;;;;4944579;28;20413;-75
2024/01/26 09:34:51;;;;;;;404.23;375.90;;;7.90;99.90;;;;;;4949983;29;20035;-76
2024/01/26 09:37:16;;;;;;;438.77;406.57;;;7.90;99.90;;;;;;4946799;29;20067;-75
2024/01/26 09:39:42;;;;;;;438.20;406.27;;;7.90;99.90;;;;;;4932537;29;20040;-75
2024/01/26 09:42:09;;;;;;;345.58;321.20;;;7.90;99.90;;;;;;4952145;28;20130;-76
2024/01/26 09:44:34;;;;;;;430.63;397.70;;;7.90;99.90;;;;;;4952468;29;20142;-75
2024/01/26 09:47:04;;;;;;;482.43;441.97;;;7.90;99.90;;;;;;4942590;28;20129;-76
2024/01/26 09:49:30;;;;;;;666.15;605.50;;;7.90;99.90;;;;;;4946762;29;20036;-75
2024/01/26 09:51:56;;;;;;;412.17;382.47;;;7.90;99.90;;;;;;4933135;29;20389;-75
2024/01/26 09:54:22;;;;;;;524.47;478.53;;;7.90;99.90;;;;;;4953036;28;20039;-75
2024/01/26 09:56:48;;;;;;;371.00;343.35;;;7.90;99.90;;;;;;4961264;28;20046;-76
2024/01/26 09:59:14;;;;;;;544.35;498.50;;;7.90;99.90;;;;;;4953483;28;20062;-75
2024/01/26 10:01:41;;;;;;;407.90;378.23;;;7.90;99.90;;;;;;4955598;28;20039;-75
2024/01/26 10:04:10;;;;;;;581.17;531.33;;;7.90;99.90;;;;;;4936006;29;20043;-75
2024/01/26 10:06:36;;;;;;;524.28;467.75;;;7.90;99.90;;;;;;4941402;28;20074;-75
2024/01/26 10:09:04;;;;;;;700.63;625.30;;;8.00;99.90;;;;;;4949025;28;20048;-74
2024/01/26 10:11:31;;;;;;;730.10;597.40;;;8.00;99.90;;;;;;4948660;28;20417;-75
2024/01/26 10:13:57;;;;;;;824.30;655.40;;;8.00;99.90;;;;;;4948914;28;20043;-75
2024/01/26 10:16:22;;;;;;;527.87;484.40;;;8.00;99.90;;;;;;4941596;28;20402;-75
2024/01/26 10:18:48;;;;;;;608.93;553.10;;;8.00;99.90;;;;;;4966830;28;20098;-75
2024/01/26 10:21:16;;;;;;;518.83;475.10;;;7.90;99.90;;;;;;4957100;28;20528;-76
2024/01/26 10:23:42;;;;;;;540.95;496.25;;;7.90;99.90;;;;;;4964965;28;20051;-75
2024/01/26 10:26:11;;;;;;;472.13;436.55;;;7.90;99.90;;;;;;4963537;28;20106;-75
2024/01/26 10:28:38;;;;;;;507.77;467.63;;;7.90;99.90;;;;;;4934958;29;20035;-76
2024/01/26 10:31:04;;;;;;;1077.80;774.47;;;7.80;99.90;;;;;;4943740;29;20453;-75
2024/01/26 10:33:34;;;;;;;487.50;447.95;;;7.70;99.90;;;;;;4945973;29;20042;-75
2024/01/26 10:36:01;;;;;;;421.60;389.85;;;7.70;99.90;;;;;;4935274;28;20039;-75
2024/01/26 10:38:31;;;;;;;387.77;361.05;;;7.70;99.90;;;;;;4949750;28;20039;-76
2024/01/26 10:41:04;;;;;;;455.23;419.65;;;7.70;99.90;;;;;;4944422;29;20044;-75
2024/01/26 10:43:31;;;;;;;598.72;545.83;;;7.80;99.90;;;;;;4950520;28;20055;-76
2024/01/26 10:45:59;;;;;;;538.13;467.15;;;7.90;99.90;;;;;;4952735;28;20082;-74
2024/01/26 10:48:25;;;;;;;471.48;430.75;;;7.90;99.90;;;;;;4956553;28;20111;-75
2024/01/26 10:50:51;;;;;;;504.57;456.43;;;7.90;99.90;;;;;;4936528;29;20096;-74
2024/01/26 10:53:19;;;;;;;448.03;409.83;;;7.90;99.90;;;;;;4956496;28;20039;-74
2024/01/26 10:55:47;;;;;;;473.08;433.52;;;7.90;99.90;;;;;;4937994;29;20490;-75
2024/01/26 10:58:13;;;;;;;560.42;507.67;;;7.90;99.90;;;;;;4963988;28;20424;-75
2024/01/26 11:00:39;;;;;;;346.70;322.57;;;7.80;99.90;;;;;;4940413;29;20047;-76
2024/01/26 11:03:05;;;;;;;451.27;416.48;;;7.80;99.90;;;;;;4946337;28;20043;-75
2024/01/26 11:05:31;;;;;;;504.23;463.08;;;7.80;99.90;;;;;;4949479;28;20078;-76
2024/01/26 11:08:00;;;;;;;520.40;473.37;;;7.80;99.90;;;;;;4945224;28;20082;-76
2024/01/26 11:10:28;;;;;;;433.65;398.40;;;7.80;99.90;;;;;;4943281;29;20039;-77
2024/01/26 11:13:04;;;;;;;428.17;396.38;;;7.80;99.90;;;;;;4960486;28;20039;-76
2024/01/26 11:15:30;;;;;;;526.17;477.42;;;7.80;99.90;;;;;;4949151;29;20565;-75
2024/01/26 11:17:57;;;;;;;648.20;585.40;;;7.90;99.80;;;;;;4944829;28;20039;-75
2024/01/26 11:20:30;;;;;;;427.02;395.30;;;7.90;99.90;;;;;;4949402;28;20039;-76
2024/01/26 11:23:09;;;;;;;334.48;311.60;;;7.90;99.40;;;;;;4932941;29;20126;-76
2024/01/26 11:25:40;;;;;;;599.53;542.17;;;7.80;99.60;;;;;;4951473;28;20053;-76
2024/01/26 11:28:07;;;;;;;429.67;398.05;;;7.80;99.90;;;;;;4942214;29;20043;-76
2024/01/26 11:30:34;;;;;;;698.42;620.67;;;7.80;99.90;;;;;;4946917;28;20521;-75
2024/01/26 11:33:01;;;;;;;385.65;356.40;;;7.80;99.90;;;;;;4932866;28;20050;-76
2024/01/26 11:35:27;;;;;;;326.00;302.92;;;7.80;99.90;;;;;;4948920;29;20067;-76
2024/01/26 11:37:54;;;;;;;322.30;299.70;;;7.70;99.90;;;;;;4932608;29;20078;-76
2024/01/26 11:40:23;;;;;;;850.83;558.88;;;7.60;99.90;;;;;;4954179;28;20291;-76
2024/01/26 11:42:49;;;;;;;941.83;705.30;;;7.60;99.90;;;;;;4925552;29;20039;-76
2024/01/26 11:45:45;;;;;;;618.88;558.38;;;7.60;99.90;;;;;;4951312;28;20039;-75
2024/01/26 11:48:12;;;;;;;454.33;417.80;;;7.60;99.90;;;;;;4956765;28;20048;-76
2024/01/26 11:50:41;;;;;;;441.83;404.58;;;7.60;99.90;;;;;;4942442;28;20089;-76
2024/01/26 11:53:06;;;;;;;1358.50;780.95;;;7.60;99.70;;;;;;4937521;29;20058;-76
2024/01/26 11:55:32;;;;;;;663.37;598.37;;;7.60;98.70;;;;;;4941572;29;20498;-76
2024/01/26 11:57:58;;;;;;;894.47;733.03;;;7.60;99.00;;;;;;4938756;29;20043;-77
2024/01/26 12:00:24;;;;;;;471.67;435.00;;;7.60;98.20;;;;;;4961376;28;20103;-77
2024/01/26 12:02:49;;;;;;;764.10;671.10;;;7.60;98.40;;;;;;4967968;28;20043;-76
2024/01/26 12:05:18;;;;;;;806.27;664.57;;;7.60;98.20;;;;;;4939754;28;20190;-77
2024/01/26 12:07:45;;;;;;;992.78;698.78;;;7.60;97.80;;;;;;4952567;29;20205;-77
2024/01/26 12:10:14;;;;;;;605.88;550.30;;;7.60;96.50;;;;;;4940949;28;20047;-77
2024/01/26 12:12:47;;;;;;;413.27;381.90;;;7.70;97.70;;;;;;4940268;28;20045;-78
2024/01/26 12:15:13;;;;;;;644.50;579.38;;;7.70;98.00;;;;;;4939169;29;20039;-77